createdAt,value
2023-03-04T00:03:28.819Z,-0.60
2023-03-04T00:08:50.660Z,-0.70
2023-03-04T00:14:12.278Z,-0.60
2023-03-04T00:19:35.166Z,-0.70
2023-03-04T00:24:56.621Z,-0.70
2023-03-04T00:30:18.456Z,-0.80
2023-03-04T00:35:39.983Z,-0.90
2023-03-04T00:41:01.525Z,-0.90
2023-03-04T00:46:23.233Z,-1.00
2023-03-04T00:51:47.063Z,-0.90
2023-03-04T00:57:08.380Z,-0.90
2023-03-04T01:02:30.259Z,-1.00
2023-03-04T01:07:51.727Z,-0.90
2023-03-04T01:13:13.429Z,-1.00
2023-03-04T01:18:35.239Z,-1.00
2023-03-04T01:23:57.320Z,-1.00
2023-03-04T01:29:19.142Z,-0.90
2023-03-04T01:34:41.132Z,-1.00
2023-03-04T01:40:03.027Z,-0.90
2023-03-04T01:45:24.872Z,-0.90
2023-03-04T01:50:46.314Z,-0.90
2023-03-04T01:56:30.508Z,-0.70
2023-03-04T02:02:01.151Z,-0.90
2023-03-04T02:07:23.120Z,-0.90
2023-03-04T02:12:45.620Z,-0.90
2023-03-04T02:18:27.170Z,-0.90
2023-03-04T02:24:10.800Z,-0.90
2023-03-04T02:29:35.049Z,-0.70
2023-03-04T02:34:57.590Z,-0.80
2023-03-04T02:40:31.831Z,-0.80
2023-03-04T02:45:54.125Z,-0.80
2023-03-04T02:51:15.788Z,-0.80
2023-03-04T02:56:37.454Z,-0.80
2023-03-04T03:01:59.228Z,-0.70
2023-03-04T03:07:21.239Z,-0.60
2023-03-04T03:12:43.805Z,-0.70
2023-03-04T03:18:06.585Z,-0.60
2023-03-04T03:23:28.032Z,-0.70
2023-03-04T03:28:49.537Z,-0.60
2023-03-04T03:34:11.128Z,-0.60
2023-03-04T03:39:32.662Z,-0.60
2023-03-04T03:44:54.342Z,-0.50
2023-03-04T03:50:16.024Z,-0.40
2023-03-04T03:55:37.505Z,-0.40
2023-03-04T04:00:59.230Z,-0.40
2023-03-04T04:06:21.039Z,-0.20
2023-03-04T04:11:42.564Z,-0.20
2023-03-04T04:17:04.393Z,-0.20
2023-03-04T04:22:26.032Z,-0.30
2023-03-04T04:27:47.658Z,-0.20
2023-03-04T04:33:10.778Z,-0.20
2023-03-04T04:38:32.330Z,-0.20
2023-03-04T04:43:54.283Z,-0.20
2023-03-04T04:49:16.052Z,-0.10
2023-03-04T04:54:37.570Z,-0.10
2023-03-04T04:59:59.182Z,-0.10
2023-03-04T05:05:20.703Z,0.00
2023-03-04T05:10:42.305Z,-0.10
2023-03-04T05:16:04.551Z,0.00
2023-03-04T05:21:26.299Z,0.00
2023-03-04T05:26:48.139Z,0.00
2023-03-04T05:32:09.735Z,0.10
2023-03-04T05:37:31.423Z,0.00
2023-03-04T05:42:53.290Z,0.00
2023-03-04T05:48:14.838Z,0.10
2023-03-04T05:53:41.328Z,0.00
2023-03-04T05:59:02.711Z,0.10
2023-03-04T06:04:24.209Z,0.20
2023-03-04T06:09:45.995Z,0.20
2023-03-04T06:15:10.208Z,0.20
2023-03-04T06:20:32.212Z,0.30
2023-03-04T06:25:58.948Z,0.30
2023-03-04T06:31:20.585Z,0.30
2023-03-04T06:36:42.162Z,0.30
2023-03-04T06:42:03.881Z,0.40
2023-03-04T06:47:25.649Z,0.60
2023-03-04T06:52:47.621Z,0.50
2023-03-04T06:58:09.162Z,0.40
2023-03-04T07:03:30.798Z,0.40
2023-03-04T07:08:52.983Z,0.50
2023-03-04T07:14:14.582Z,0.40
2023-03-04T07:19:36.072Z,0.50
2023-03-04T07:24:57.841Z,0.60
2023-03-04T07:30:19.447Z,0.50
2023-03-04T07:35:41.752Z,0.60
2023-03-04T07:41:03.861Z,0.60
2023-03-04T07:46:25.758Z,0.70
2023-03-04T07:51:47.784Z,0.60
2023-03-04T07:57:09.428Z,0.60
2023-03-04T08:02:31.122Z,0.70
2023-03-04T08:07:52.808Z,0.80
2023-03-04T08:13:14.586Z,0.80
2023-03-04T08:18:36.357Z,0.80
2023-03-04T08:24:08.351Z,0.90
2023-03-04T08:29:30.561Z,0.90
2023-03-04T08:34:52.102Z,1.10
2023-03-04T08:40:14.888Z,1.20
2023-03-04T08:45:36.390Z,1.20
2023-03-04T08:50:57.798Z,1.30
2023-03-04T08:56:19.654Z,1.30
2023-03-04T09:01:43.945Z,1.30
2023-03-04T09:07:06.131Z,1.30
2023-03-04T09:12:27.722Z,1.50
2023-03-04T09:17:49.193Z,1.70
2023-03-04T09:23:10.957Z,1.70
2023-03-04T09:28:32.568Z,1.80
2023-03-04T09:33:55.448Z,1.70
2023-03-04T09:39:16.750Z,1.90
2023-03-04T09:44:42.198Z,1.80
2023-03-04T09:50:08.537Z,2.10
2023-03-04T09:55:38.155Z,2.10
2023-03-04T10:01:09.909Z,2.00
2023-03-04T10:06:32.702Z,2.10
2023-03-04T10:12:05.064Z,2.10
2023-03-04T10:17:43.443Z,2.30
2023-03-04T10:23:14.981Z,2.40
2023-03-04T10:28:37.838Z,2.40
2023-03-04T10:33:59.290Z,2.50
2023-03-04T10:39:50.057Z,2.60
2023-03-04T10:45:26.418Z,2.60
2023-03-04T10:50:48.086Z,2.60
2023-03-04T10:56:53.975Z,2.70
2023-03-04T11:02:34.304Z,2.70
2023-03-04T11:07:59.330Z,2.80
2023-03-04T11:13:26.364Z,2.70
2023-03-04T11:18:53.421Z,2.60
2023-03-04T11:24:29.131Z,2.80
2023-03-04T11:30:10.785Z,2.90
2023-03-04T11:35:43.215Z,3.00
2023-03-04T11:41:16.879Z,3.00
2023-03-04T11:47:17.089Z,3.00
2023-03-04T11:53:06.709Z,3.00
2023-03-04T11:59:09.977Z,3.30
2023-03-04T12:04:47.637Z,3.20
2023-03-04T12:10:24.851Z,3.20
2023-03-04T12:15:49.389Z,3.30
2023-03-04T12:21:17.058Z,3.30
2023-03-04T12:26:46.052Z,3.40
2023-03-04T12:32:37.359Z,3.50
2023-03-04T12:38:28.564Z,3.60
2023-03-04T12:44:22.689Z,3.70
2023-03-04T12:50:08.848Z,3.80
2023-03-04T12:55:38.653Z,3.80
2023-03-04T13:01:23.853Z,3.90
2023-03-04T13:07:23.203Z,3.90
2023-03-04T13:12:51.952Z,3.90
2023-03-04T13:18:39.648Z,4.00
2023-03-04T13:24:42.918Z,4.00
2023-03-04T13:30:24.746Z,4.20
2023-03-04T13:36:02.326Z,4.10
2023-03-04T13:41:55.533Z,4.20
2023-03-04T13:47:22.664Z,4.20
2023-03-04T13:52:44.579Z,4.30
2023-03-04T13:58:27.383Z,4.30
2023-03-04T14:03:49.143Z,4.30
2023-03-04T14:09:16.293Z,4.40
2023-03-04T14:14:47.826Z,4.50
2023-03-04T14:20:24.585Z,4.60
2023-03-04T14:25:48.572Z,4.60
2023-03-04T14:31:17.638Z,4.70
2023-03-04T14:36:39.313Z,4.70
2023-03-04T14:42:07.970Z,4.70
2023-03-04T14:47:40.873Z,4.50
2023-03-04T14:53:08.594Z,4.60
2023-03-04T14:58:32.865Z,4.30
2023-03-04T15:04:08.073Z,4.40
2023-03-04T15:09:29.782Z,4.30
2023-03-04T15:14:54.684Z,4.20
2023-03-04T15:20:26.818Z,4.10
2023-03-04T15:25:54.046Z,3.90
2023-03-04T15:31:21.214Z,3.80
2023-03-04T15:36:46.624Z,3.90
2023-03-04T15:42:12.651Z,3.90
2023-03-04T15:47:34.626Z,3.80
2023-03-04T15:53:02.197Z,3.90
2023-03-04T15:58:23.951Z,3.80
2023-03-04T16:03:45.509Z,3.70
2023-03-04T16:09:10.604Z,3.50
2023-03-04T16:14:32.133Z,3.40
2023-03-04T16:19:53.789Z,3.30
2023-03-04T16:25:17.581Z,3.30
2023-03-04T16:30:39.726Z,3.40
2023-03-04T16:36:01.482Z,3.30
2023-03-04T16:41:28.965Z,3.40
2023-03-04T16:46:50.699Z,3.40
2023-03-04T16:52:23.981Z,3.30
2023-03-04T16:57:45.929Z,3.40
2023-03-04T17:03:10.547Z,3.40
2023-03-04T17:08:32.080Z,3.40
2023-03-04T17:13:54.228Z,3.30
2023-03-04T17:19:16.050Z,3.20
2023-03-04T17:24:37.342Z,3.30
2023-03-04T17:29:58.937Z,3.40
2023-03-04T17:35:20.703Z,3.40
2023-03-04T17:40:43.046Z,3.30
2023-03-04T17:46:14.149Z,3.40
2023-03-04T17:51:39.824Z,3.30
2023-03-04T17:57:01.345Z,3.30
2023-03-04T18:02:23.119Z,3.10
2023-03-04T18:07:44.850Z,3.20
2023-03-04T18:13:06.567Z,3.20
2023-03-04T18:18:28.188Z,3.30
2023-03-04T18:23:50.008Z,3.30
2023-03-04T18:29:11.582Z,3.30
2023-03-04T18:34:33.369Z,3.20
2023-03-04T18:39:54.969Z,3.10
2023-03-04T18:45:17.612Z,3.10
2023-03-04T18:50:39.406Z,3.10
2023-03-04T18:56:11.378Z,3.10
2023-03-04T19:01:34.464Z,3.20
2023-03-04T19:06:56.375Z,2.90
2023-03-04T19:12:18.121Z,3.10
2023-03-04T19:17:40.572Z,3.00
2023-03-04T19:23:02.010Z,3.10
2023-03-04T19:28:24.424Z,3.00
2023-03-04T19:33:45.950Z,3.10
2023-03-04T19:39:08.694Z,2.90
2023-03-04T19:44:30.906Z,3.00
2023-03-04T19:49:52.222Z,3.00
2023-03-04T19:55:13.976Z,2.80
2023-03-04T20:00:36.913Z,2.60
2023-03-04T20:06:09.218Z,2.60
2023-03-04T20:11:31.837Z,2.60
2023-03-04T20:16:53.283Z,2.70
2023-03-04T20:22:15.056Z,2.60
2023-03-04T20:27:36.791Z,2.40
2023-03-04T20:32:58.467Z,2.50
2023-03-04T20:38:20.172Z,2.60
2023-03-04T20:43:42.002Z,2.60
2023-03-04T20:49:06.730Z,2.60
2023-03-04T20:54:28.257Z,2.60
2023-03-04T20:59:50.105Z,2.50
2023-03-04T21:05:11.671Z,2.50
2023-03-04T21:10:36.093Z,2.30
2023-03-04T21:15:58.800Z,2.40
2023-03-04T21:21:24.803Z,2.10
2023-03-04T21:26:47.785Z,2.10
2023-03-04T21:32:23.919Z,2.00
2023-03-04T21:37:46.890Z,1.90
2023-03-04T21:43:08.331Z,1.90
2023-03-04T21:48:30.093Z,2.10
2023-03-04T21:53:51.610Z,2.20
2023-03-04T21:59:14.539Z,2.20
2023-03-04T22:04:35.945Z,2.00
2023-03-04T22:10:00.510Z,2.00
2023-03-04T22:15:22.198Z,1.90
2023-03-04T22:20:45.337Z,1.90
2023-03-04T22:26:15.007Z,1.90
2023-03-04T22:31:38.111Z,2.10
2023-03-04T22:36:59.999Z,2.00
2023-03-04T22:42:21.655Z,1.80
2023-03-04T22:47:54.134Z,1.50
2023-03-04T22:53:15.772Z,1.40
2023-03-04T22:58:37.527Z,1.40
2023-03-04T23:03:59.371Z,1.40
2023-03-04T23:09:20.590Z,1.40
2023-03-04T23:14:44.894Z,1.50
2023-03-04T23:20:06.941Z,1.50
2023-03-04T23:25:28.750Z,1.50
2023-03-04T23:30:50.584Z,1.60
2023-03-04T23:36:15.264Z,1.40
2023-03-04T23:41:37.243Z,1.30
2023-03-04T23:46:58.621Z,1.30
2023-03-04T23:52:20.284Z,1.30
2023-03-04T23:57:42.101Z,1.30
